Thursday, May 24, 2018, 3:17 PM EDT
Back to Local

KMFV, Melfa / Accomack Airport

Location: Melfa, VA, United States Lat: 37.65
Local Time: 3:17 PM EDT (19:17 GMT) Lon: -75.767
Time Zone: US/Eastern Elev: 49 ft

Show me the last for .
Show Coded

Time T Td Feel RH Dir Speed Gust Alt SLP Vis Weather Sky Remarks
2018-05-24 14:55 78 55 79 45 120° 9 - 30.17 - 10 SCT048 None
2018-05-24 14:35 80 56 80 44 110° 3 - 30.16 - 10 SCT048 None
2018-05-24 14:15 79 55 80 43 100° 6 - 30.17 - 10 CLR None
2018-05-24 13:55 80 57 81 44 110° 6 - 30.17 - 10 CLR 6-hr Min Temp (2pm): 71.4°F
6-hr Max Temp (2pm): 81.0°F
2018-05-24 13:35 80 56 80 44 110° 5 - 30.17 - 10 CLR None
2018-05-24 13:15 80 55 80 42 120° 6 - 30.17 - 10 CLR None
2018-05-24 12:55 81 56 81 43 100° 6 - 30.17 - 10 CLR None
2018-05-24 12:35 81 56 81 43 140° 10 - 30.17 - 10 CLR None
2018-05-24 12:15 81 55 81 41 120° 5 - 30.17 - 10 CLR None
2018-05-24 11:55 81 58 81 45 100° 7 - 30.17 - 10 CLR None
2018-05-24 11:35 80 58 81 47 - Calm - 30.16 - 10 CLR None
2018-05-24 11:15 80 59 81 48 40° 3 - 30.17 - 10 CLR None
2018-05-24 10:55 80 60 81 50 30° 6 - 30.16 - 10 CLR None
2018-05-24 10:35 78 62 80 56 30° 6 - 30.16 - 10 CLR None
2018-05-24 10:15 78 62 80 58 350° 6 - 30.15 - 10 CLR None
2018-05-24 09:55 77 63 79 62 10° 6 - 30.15 - 10 CLR None
2018-05-24 09:35 77 64 79 64 330° 5 - 30.15 - 10 CLR None
2018-05-24 09:15 76 63 79 63 350° 7 - 30.15 - 10 CLR None
2018-05-24 08:55 75 64 78 69 360° 3 - 30.15 - 10 CLR None
2018-05-24 08:35 74 66 78 74 350° 5 - 30.15 - 10 CLR None
2018-05-24 08:15 73 67 77 80 350° 5 - 30.15 - 10 CLR None
2018-05-24 07:55 71 67 76 87 320° 3 - 30.15 - 10 CLR 6-hr Min Temp (8am): 59.2°F
6-hr Max Temp (8am): 71.2°F
2018-05-24 07:35 69 66 - 91 - Calm - 30.14 - 10 CLR None
2018-05-24 07:15 66 65 - 96 - Calm - 30.13 - 10 CLR None
2018-05-24 06:55 63 62 - 98 320° 3 - 30.13 - 10 CLR None
2018-05-24 06:35 61 60 - 98 300° 3 - 30.12 - 10 CLR None
2018-05-24 06:15 60 60 - 98 - Calm - 30.11 - 10 CLR None
2018-05-24 05:55 60 59 - 98 320° 3 - 30.10 - 2 BR CLR Variable visibility
2018-05-24 05:35 60 59 - 98 320° 5 - 30.10 - 10 CLR None
2018-05-24 05:15 60 59 - 98 330° 3 - 30.09 - 10 CLR None
2018-05-24 04:55 60 60 - 98 330° 5 - 30.09 - 5 BR CLR None
2018-05-24 04:35 60 59 - 97 330° 3 - 30.09 - 10 CLR None
2018-05-24 04:15 61 60 - 97 310° 3 - 30.09 - 10 CLR None
2018-05-24 03:55 61 60 - 97 - Calm - 30.09 - 10 CLR None
2018-05-24 03:35 61 61 - 98 - Calm - 30.08 - 10 CLR None
2018-05-24 03:15 62 61 - 98 - Calm - 30.08 - 10 CLR None
2018-05-24 02:55 61 61 - 98 340° 3 - 30.08 - 7 CLR None
2018-05-24 02:35 62 61 - 98 320° 3 - 30.08 - 5 BR CLR None
2018-05-24 02:15 61 61 - 97 330° 5 - 30.08 - 5 BR CLR None
2018-05-24 01:55 63 62 - 96 - Calm - 30.08 - 10 CLR 6-hr Min Temp (2am): 62.6°F
6-hr Max Temp (2am): 75.9°F
2018-05-24 01:35 63 62 - 97 - Calm - 30.08 - 10 CLR None
2018-05-24 01:15 64 62 - 95 - Calm - 30.08 - 10 CLR None
2018-05-24 00:55 64 62 - 94 - Calm - 30.08 - 10 CLR 24-hr Min Temp (1am): 63.5°F
24-hr Max Temp (1am): 82.6°F
2018-05-24 00:35 64 62 - 95 - Calm - 30.08 - 10 CLR None
2018-05-24 00:15 64 62 - 95 - Calm - 30.08 - 10 CLR None
2018-05-23 23:55 64 62 - 94 - Calm - 30.07 - 10 CLR None
2018-05-23 23:35 64 63 - 95 340° 3 - 30.06 - 10 CLR None
2018-05-23 23:15 65 63 - 93 330° 3 - 30.06 - 10 CLR None
2018-05-23 22:55 65 63 - 93 340° 3 - 30.06 - 10 CLR None
2018-05-23 22:35 65 64 - 93 350° 3 - 30.06 - 10 CLR None
2018-05-23 22:15 67 63 - 87 - Calm - 30.06 - 10 CLR None
2018-05-23 21:55 67 63 - 87 - Calm - 30.05 - 10 CLR None
2018-05-23 21:35 68 63 - 82 - Calm - 30.05 - 10 CLR None
2018-05-23 21:15 70 63 - 77 350° 5 - 30.04 - 7 CLR None
2018-05-23 20:55 72 62 76 70 350° 5 - 30.04 - 10 CLR None
2018-05-23 20:35 73 63 77 71 340° 3 - 30.04 - 10 CLR None
2018-05-23 20:15 75 62 78 65 350° 3 - 30.03 - 10 CLR None
2018-05-23 19:55 76 63 79 63 360° 5 - 30.02 - 10 CLR 6-hr Min Temp (8pm): 76.1°F
6-hr Max Temp (8pm): 82.6°F
2018-05-23 19:35 77 63 79 61 360° 5 - 30.02 - 10 CLR None
2018-05-23 19:15 78 63 81 59 350° 6 - 30.00 - 10 CLR None
2018-05-23 18:55 79 64 81 59 350° 5 - 30.00 - 10 CLR None
2018-05-23 18:35 80 65 82 60 340° 8 - 30.00 - 10 CLR None
2018-05-23 18:15 80 64 82 58 330° 8 - 29.99 - 10 CLR None
2018-05-23 17:55 81 63 82 55 330° 8 - 29.99 - 10 CLR None
2018-05-23 17:35 81 64 83 56 340° 9 16 29.99 - 10 CLR None
2018-05-23 17:15 81 64 83 56 340° 10 18 29.98 - 10 CLR None
2018-05-23 16:55 81 65 83 58 350° 12 16 29.98 - 10 CLR None
2018-05-23 16:35 82 66 84 58 330° 8 17 29.98 - 10 CLR None
2018-05-23 16:15 82 66 84 59 330° 6 - 29.98 - 10 CLR None
2018-05-23 15:55 82 65 84 57 350° 9 - 29.98 - 10 CLR None
2018-05-23 15:35 82 66 84 59 330° 6 16 29.99 - 10 CLR None

Support USWX by starting your Amazon purchase here.